sensor_id;sensor_type;location;lat;lon;timestamp;temperature;humidity
62583;DHT22;48641;51.676;5.808;2022-10-17T00:00:39;18.20;64.40
62583;DHT22;48641;51.676;5.808;2022-10-17T00:03:05;18.20;64.40
62583;DHT22;48641;51.676;5.808;2022-10-17T00:05:30;18.20;64.40
62583;DHT22;48641;51.676;5.808;2022-10-17T00:07:56;18.20;64.40
62583;DHT22;48641;51.676;5.808;2022-10-17T00:10:22;18.30;64.50
62583;DHT22;48641;51.676;5.808;2022-10-17T00:12:47;18.30;64.50
62583;DHT22;48641;51.676;5.808;2022-10-17T00:15:17;18.20;64.40
62583;DHT22;48641;51.676;5.808;2022-10-17T00:17:42;18.20;64.40
62583;DHT22;48641;51.676;5.808;2022-10-17T00:20:08;18.20;64.40
62583;DHT22;48641;51.676;5.808;2022-10-17T00:22:34;18.20;64.40
62583;DHT22;48641;51.676;5.808;2022-10-17T00:24:59;18.20;64.40
62583;DHT22;48641;51.676;5.808;2022-10-17T00:27:25;18.20;64.40
62583;DHT22;48641;51.676;5.808;2022-10-17T00:29:51;18.20;64.40
62583;DHT22;48641;51.676;5.808;2022-10-17T00:32:17;18.20;64.40
62583;DHT22;48641;51.676;5.808;2022-10-17T00:34:43;18.20;64.40
62583;DHT22;48641;51.676;5.808;2022-10-17T00:37:08;18.20;64.40
62583;DHT22;48641;51.676;5.808;2022-10-17T00:39:34;18.20;64.40
62583;DHT22;48641;51.676;5.808;2022-10-17T00:42:00;18.20;64.40
62583;DHT22;48641;51.676;5.808;2022-10-17T00:46:54;18.20;64.40
62583;DHT22;48641;51.676;5.808;2022-10-17T00:49:22;18.10;64.40
62583;DHT22;48641;51.676;5.808;2022-10-17T00:51:53;18.20;64.40
62583;DHT22;48641;51.676;5.808;2022-10-17T00:54:23;18.20;64.50
62583;DHT22;48641;51.676;5.808;2022-10-17T00:56:50;18.20;64.50
62583;DHT22;48641;51.676;5.808;2022-10-17T00:59:18;18.10;64.40
62583;DHT22;48641;51.676;5.808;2022-10-17T01:02:13;18.20;64.50
62583;DHT22;48641;51.676;5.808;2022-10-17T01:04:40;18.20;64.50
62583;DHT22;48641;51.676;5.808;2022-10-17T01:07:06;18.10;64.50
62583;DHT22;48641;51.676;5.808;2022-10-17T01:09:32;18.10;64.50
62583;DHT22;48641;51.676;5.808;2022-10-17T01:23:01;18.10;64.50
62583;DHT22;48641;51.676;5.808;2022-10-17T01:25:53;18.10;64.60
62583;DHT22;48641;51.676;5.808;2022-10-17T01:31:12;18.10;64.70
62583;DHT22;48641;51.676;5.808;2022-10-17T01:37:19;18.10;64.50
62583;DHT22;48641;51.676;5.808;2022-10-17T01:39:56;18.10;64.60
62583;DHT22;48641;51.676;5.808;2022-10-17T01:42:41;18.00;64.70
62583;DHT22;48641;51.676;5.808;2022-10-17T01:45:48;18.00;64.60
62583;DHT22;48641;51.676;5.808;2022-10-17T01:48:16;18.00;65.60
62583;DHT22;48641;51.676;5.808;2022-10-17T01:50:47;18.00;64.70
62583;DHT22;48641;51.676;5.808;2022-10-17T01:53:24;18.00;64.70
62583;DHT22;48641;51.676;5.808;2022-10-17T01:55:53;18.00;64.70
62583;DHT22;48641;51.676;5.808;2022-10-17T01:58:33;18.00;64.70
62583;DHT22;48641;51.676;5.808;2022-10-17T02:01:04;18.00;64.60
62583;DHT22;48641;51.676;5.808;2022-10-17T02:03:31;18.00;64.60
62583;DHT22;48641;51.676;5.808;2022-10-17T02:05:59;18.00;64.70
62583;DHT22;48641;51.676;5.808;2022-10-17T02:08:39;18.00;64.70
62583;DHT22;48641;51.676;5.808;2022-10-17T02:11:18;18.00;64.70
62583;DHT22;48641;51.676;5.808;2022-10-17T02:14:20;18.00;64.70
62583;DHT22;48641;51.676;5.808;2022-10-17T02:19:49;18.00;64.70
62583;DHT22;48641;51.676;5.808;2022-10-17T02:22:42;18.00;64.60
62583;DHT22;48641;51.676;5.808;2022-10-17T02:28:20;18.00;64.70
62583;DHT22;48641;51.676;5.808;2022-10-17T02:30:53;18.00;64.80
62583;DHT22;48641;51.676;5.808;2022-10-17T02:33:28;18.00;64.80
62583;DHT22;48641;51.676;5.808;2022-10-17T02:35:58;18.00;64.80
62583;DHT22;48641;51.676;5.808;2022-10-17T02:38:26;18.00;64.80
62583;DHT22;48641;51.676;5.808;2022-10-17T02:40:53;18.00;64.80
62583;DHT22;48641;51.676;5.808;2022-10-17T02:43:19;18.00;64.80
62583;DHT22;48641;51.676;5.808;2022-10-17T02:45:46;18.00;64.80
62583;DHT22;48641;51.676;5.808;2022-10-17T02:48:33;18.00;64.70
62583;DHT22;48641;51.676;5.808;2022-10-17T02:51:08;18.00;64.60
62583;DHT22;48641;51.676;5.808;2022-10-17T02:56:13;18.00;64.70
62583;DHT22;48641;51.676;5.808;2022-10-17T02:58:42;18.00;64.80
62583;DHT22;48641;51.676;5.808;2022-10-17T03:01:11;18.00;64.80
62583;DHT22;48641;51.676;5.808;2022-10-17T03:03:37;18.00;64.70
62583;DHT22;48641;51.676;5.808;2022-10-17T03:06:03;18.00;64.70
62583;DHT22;48641;51.676;5.808;2022-10-17T03:08:29;18.00;64.70
62583;DHT22;48641;51.676;5.808;2022-10-17T03:10:54;18.00;64.60
62583;DHT22;48641;51.676;5.808;2022-10-17T03:13:20;18.00;64.60
62583;DHT22;48641;51.676;5.808;2022-10-17T03:15:46;18.00;64.70
62583;DHT22;48641;51.676;5.808;2022-10-17T03:18:11;18.00;64.60
62583;DHT22;48641;51.676;5.808;2022-10-17T03:20:37;18.00;64.60
62583;DHT22;48641;51.676;5.808;2022-10-17T03:23:03;18.00;64.60
62583;DHT22;48641;51.676;5.808;2022-10-17T03:25:28;18.00;64.60
62583;DHT22;48641;51.676;5.808;2022-10-17T03:27:54;18.00;64.60
62583;DHT22;48641;51.676;5.808;2022-10-17T03:30:19;18.00;64.60
62583;DHT22;48641;51.676;5.808;2022-10-17T03:32:45;18.00;64.60
62583;DHT22;48641;51.676;5.808;2022-10-17T03:35:10;18.00;64.60
62583;DHT22;48641;51.676;5.808;2022-10-17T03:37:36;18.00;64.60
62583;DHT22;48641;51.676;5.808;2022-10-17T03:40:02;18.00;64.60
62583;DHT22;48641;51.676;5.808;2022-10-17T03:42:27;18.00;64.60
62583;DHT22;48641;51.676;5.808;2022-10-17T03:44:53;18.00;64.60
62583;DHT22;48641;51.676;5.808;2022-10-17T03:47:19;18.00;64.60
62583;DHT22;48641;51.676;5.808;2022-10-17T03:49:44;18.00;64.60
62583;DHT22;48641;51.676;5.808;2022-10-17T03:52:13;18.00;64.60
62583;DHT22;48641;51.676;5.808;2022-10-17T03:54:39;18.00;64.60
62583;DHT22;48641;51.676;5.808;2022-10-17T03:57:05;18.00;64.60
62583;DHT22;48641;51.676;5.808;2022-10-17T03:59:30;18.00;64.60
62583;DHT22;48641;51.676;5.808;2022-10-17T04:01:56;18.00;64.60
62583;DHT22;48641;51.676;5.808;2022-10-17T04:04:21;18.00;64.60
62583;DHT22;48641;51.676;5.808;2022-10-17T04:06:47;18.00;64.70
62583;DHT22;48641;51.676;5.808;2022-10-17T04:09:12;18.00;64.60
62583;DHT22;48641;51.676;5.808;2022-10-17T04:11:38;18.00;64.60
62583;DHT22;48641;51.676;5.808;2022-10-17T04:14:04;18.00;65.60
62583;DHT22;48641;51.676;5.808;2022-10-17T04:16:30;17.90;64.60
62583;DHT22;48641;51.676;5.808;2022-10-17T04:18:57;18.00;64.60
62583;DHT22;48641;51.676;5.808;2022-10-17T04:21:24;17.90;64.60
62583;DHT22;48641;51.676;5.808;2022-10-17T04:23:54;18.00;64.70
62583;DHT22;48641;51.676;5.808;2022-10-17T04:26:20;18.00;64.60
62583;DHT22;48641;51.676;5.808;2022-10-17T04:28:46;18.00;64.70
62583;DHT22;48641;51.676;5.808;2022-10-17T04:31:13;17.90;64.70
62583;DHT22;48641;51.676;5.808;2022-10-17T04:33:40;17.90;64.60
62583;DHT22;48641;51.676;5.808;2022-10-17T04:36:10;17.90;64.60
62583;DHT22;48641;51.676;5.808;2022-10-17T04:38:36;17.90;64.60
62583;DHT22;48641;51.676;5.808;2022-10-17T04:41:05;17.90;64.60
62583;DHT22;48641;51.676;5.808;2022-10-17T04:43:33;17.90;64.60
62583;DHT22;48641;51.676;5.808;2022-10-17T04:46:01;17.90;64.60
62583;DHT22;48641;51.676;5.808;2022-10-17T04:48:27;17.90;64.70
62583;DHT22;48641;51.676;5.808;2022-10-17T04:51:04;17.90;64.70
62583;DHT22;48641;51.676;5.808;2022-10-17T04:53:32;17.90;64.70
62583;DHT22;48641;51.676;5.808;2022-10-17T04:55:57;17.90;65.70
62583;DHT22;48641;51.676;5.808;2022-10-17T04:58:23;17.90;64.70
62583;DHT22;48641;51.676;5.808;2022-10-17T05:00:49;17.90;64.70
62583;DHT22;48641;51.676;5.808;2022-10-17T05:03:15;17.90;64.90
62583;DHT22;48641;51.676;5.808;2022-10-17T05:05:41;17.90;64.70
62583;DHT22;48641;51.676;5.808;2022-10-17T05:08:08;17.90;64.70
62583;DHT22;48641;51.676;5.808;2022-10-17T05:10:39;17.90;64.70
62583;DHT22;48641;51.676;5.808;2022-10-17T05:13:05;17.90;64.70
62583;DHT22;48641;51.676;5.808;2022-10-17T05:15:32;17.90;64.70
62583;DHT22;48641;51.676;5.808;2022-10-17T05:17:57;17.90;64.70
62583;DHT22;48641;51.676;5.808;2022-10-17T05:20:25;17.90;64.70
62583;DHT22;48641;51.676;5.808;2022-10-17T05:22:50;17.90;64.70
62583;DHT22;48641;51.676;5.808;2022-10-17T05:25:16;17.90;64.70
62583;DHT22;48641;51.676;5.808;2022-10-17T05:27:41;17.90;64.70
62583;DHT22;48641;51.676;5.808;2022-10-17T05:30:07;17.90;64.70
62583;DHT22;48641;51.676;5.808;2022-10-17T05:32:34;17.90;64.70
62583;DHT22;48641;51.676;5.808;2022-10-17T05:34:59;17.90;64.80
62583;DHT22;48641;51.676;5.808;2022-10-17T05:37:25;17.90;64.80
62583;DHT22;48641;51.676;5.808;2022-10-17T05:39:53;17.90;64.80
62583;DHT22;48641;51.676;5.808;2022-10-17T05:42:18;17.90;64.80
62583;DHT22;48641;51.676;5.808;2022-10-17T05:44:44;17.90;64.80
62583;DHT22;48641;51.676;5.808;2022-10-17T05:47:10;17.90;64.80
62583;DHT22;48641;51.676;5.808;2022-10-17T05:49:35;17.90;64.80
62583;DHT22;48641;51.676;5.808;2022-10-17T05:52:01;17.90;64.80
62583;DHT22;48641;51.676;5.808;2022-10-17T05:54:27;17.90;64.80
62583;DHT22;48641;51.676;5.808;2022-10-17T05:56:53;17.90;65.80
62583;DHT22;48641;51.676;5.808;2022-10-17T05:59:19;17.90;64.70
62583;DHT22;48641;51.676;5.808;2022-10-17T06:01:45;17.90;64.80
62583;DHT22;48641;51.676;5.808;2022-10-17T06:04:10;17.90;64.80
62583;DHT22;48641;51.676;5.808;2022-10-17T06:06:37;17.90;64.80
62583;DHT22;48641;51.676;5.808;2022-10-17T06:09:02;17.90;64.90
62583;DHT22;48641;51.676;5.808;2022-10-17T06:11:28;17.90;64.80
62583;DHT22;48641;51.676;5.808;2022-10-17T06:13:54;17.90;64.90
62583;DHT22;48641;51.676;5.808;2022-10-17T06:16:20;17.90;64.90
62583;DHT22;48641;51.676;5.808;2022-10-17T06:18:45;17.90;64.90
62583;DHT22;48641;51.676;5.808;2022-10-17T06:21:14;17.90;64.90
62583;DHT22;48641;51.676;5.808;2022-10-17T06:23:40;17.90;64.90
62583;DHT22;48641;51.676;5.808;2022-10-17T06:26:06;17.90;64.90
62583;DHT22;48641;51.676;5.808;2022-10-17T06:28:32;17.90;64.90
62583;DHT22;48641;51.676;5.808;2022-10-17T06:30:57;17.90;64.90
62583;DHT22;48641;51.676;5.808;2022-10-17T06:33:23;17.90;64.90
62583;DHT22;48641;51.676;5.808;2022-10-17T06:35:53;17.90;65.00
62583;DHT22;48641;51.676;5.808;2022-10-17T06:38:19;17.90;65.00
62583;DHT22;48641;51.676;5.808;2022-10-17T06:40:45;17.90;64.90
62583;DHT22;48641;51.676;5.808;2022-10-17T06:43:11;17.90;65.00
62583;DHT22;48641;51.676;5.808;2022-10-17T06:45:39;17.90;65.00
62583;DHT22;48641;51.676;5.808;2022-10-17T06:48:06;17.90;65.00
62583;DHT22;48641;51.676;5.808;2022-10-17T06:50:31;17.90;65.00
62583;DHT22;48641;51.676;5.808;2022-10-17T06:52:57;17.90;65.00
62583;DHT22;48641;51.676;5.808;2022-10-17T06:55:22;17.90;65.00
62583;DHT22;48641;51.676;5.808;2022-10-17T06:57:48;17.90;65.10
62583;DHT22;48641;51.676;5.808;2022-10-17T07:00:14;17.90;65.10
62583;DHT22;48641;51.676;5.808;2022-10-17T07:02:41;17.90;65.10
62583;DHT22;48641;51.676;5.808;2022-10-17T07:05:08;17.90;65.00
62583;DHT22;48641;51.676;5.808;2022-10-17T07:07:33;17.90;65.10
62583;DHT22;48641;51.676;5.808;2022-10-17T07:09:59;17.90;65.10
62583;DHT22;48641;51.676;5.808;2022-10-17T07:12:24;17.90;65.10
62583;DHT22;48641;51.676;5.808;2022-10-17T07:14:50;17.90;65.10
62583;DHT22;48641;51.676;5.808;2022-10-17T07:17:16;17.90;65.10
62583;DHT22;48641;51.676;5.808;2022-10-17T07:19:43;17.90;65.10
62583;DHT22;48641;51.676;5.808;2022-10-17T07:22:09;17.90;65.10
62583;DHT22;48641;51.676;5.808;2022-10-17T07:24:35;17.90;65.10
62583;DHT22;48641;51.676;5.808;2022-10-17T07:27:00;17.90;65.10
62583;DHT22;48641;51.676;5.808;2022-10-17T07:29:26;17.90;65.10
62583;DHT22;48641;51.676;5.808;2022-10-17T07:31:51;17.90;65.10
62583;DHT22;48641;51.676;5.808;2022-10-17T07:34:17;17.90;65.10
62583;DHT22;48641;51.676;5.808;2022-10-17T07:36:43;17.90;65.10
62583;DHT22;48641;51.676;5.808;2022-10-17T07:39:09;17.90;65.00
62583;DHT22;48641;51.676;5.808;2022-10-17T07:41:35;17.90;65.00
62583;DHT22;48641;51.676;5.808;2022-10-17T07:44:00;17.90;65.10
62583;DHT22;48641;51.676;5.808;2022-10-17T07:46:26;17.90;65.00
62583;DHT22;48641;51.676;5.808;2022-10-17T07:48:51;17.90;65.10
62583;DHT22;48641;51.676;5.808;2022-10-17T07:51:17;17.90;65.00
62583;DHT22;48641;51.676;5.808;2022-10-17T07:53:44;17.90;65.00
62583;DHT22;48641;51.676;5.808;2022-10-17T07:56:12;17.90;65.10
62583;DHT22;48641;51.676;5.808;2022-10-17T07:58:38;17.90;65.10
62583;DHT22;48641;51.676;5.808;2022-10-17T08:01:07;17.90;65.10
62583;DHT22;48641;51.676;5.808;2022-10-17T08:03:33;17.90;65.10
62583;DHT22;48641;51.676;5.808;2022-10-17T08:06:00;17.90;65.20
62583;DHT22;48641;51.676;5.808;2022-10-17T08:08:26;17.90;65.10
62583;DHT22;48641;51.676;5.808;2022-10-17T08:10:53;17.90;65.20
62583;DHT22;48641;51.676;5.808;2022-10-17T08:13:20;17.90;65.20
62583;DHT22;48641;51.676;5.808;2022-10-17T08:15:47;17.90;65.10
62583;DHT22;48641;51.676;5.808;2022-10-17T08:18:13;17.90;65.10
62583;DHT22;48641;51.676;5.808;2022-10-17T08:20:42;17.90;65.10
62583;DHT22;48641;51.676;5.808;2022-10-17T08:23:08;17.90;65.20
62583;DHT22;48641;51.676;5.808;2022-10-17T08:25:34;17.90;65.20
62583;DHT22;48641;51.676;5.808;2022-10-17T08:28:01;17.90;65.20
62583;DHT22;48641;51.676;5.808;2022-10-17T08:30:27;17.90;65.20
62583;DHT22;48641;51.676;5.808;2022-10-17T08:32:55;17.90;65.20
62583;DHT22;48641;51.676;5.808;2022-10-17T08:35:20;17.90;65.30
62583;DHT22;48641;51.676;5.808;2022-10-17T08:37:46;17.90;65.20
62583;DHT22;48641;51.676;5.808;2022-10-17T08:40:18;17.90;65.30
62583;DHT22;48641;51.676;5.808;2022-10-17T08:48:26;17.90;65.30
62583;DHT22;48641;51.676;5.808;2022-10-17T08:53:38;17.90;65.40
62583;DHT22;48641;51.676;5.808;2022-10-17T08:56:28;17.90;65.40
62583;DHT22;48641;51.676;5.808;2022-10-17T08:58:54;17.90;65.40
62583;DHT22;48641;51.676;5.808;2022-10-17T09:01:47;17.90;65.50
62583;DHT22;48641;51.676;5.808;2022-10-17T09:07:38;17.90;65.40
62583;DHT22;48641;51.676;5.808;2022-10-17T09:10:20;17.90;65.40
62583;DHT22;48641;51.676;5.808;2022-10-17T09:12:58;17.90;65.60
62583;DHT22;48641;51.676;5.808;2022-10-17T09:15:49;17.90;65.60
62583;DHT22;48641;51.676;5.808;2022-10-17T09:18:28;17.80;65.60
62583;DHT22;48641;51.676;5.808;2022-10-17T09:20:58;17.90;65.70
62583;DHT22;48641;51.676;5.808;2022-10-17T09:23:28;17.80;65.60
62583;DHT22;48641;51.676;5.808;2022-10-17T09:25:58;17.80;65.90
62583;DHT22;48641;51.676;5.808;2022-10-17T09:28:33;17.80;65.90
62583;DHT22;48641;51.676;5.808;2022-10-17T09:31:03;17.80;65.80
62583;DHT22;48641;51.676;5.808;2022-10-17T09:33:37;17.80;65.80
62583;DHT22;48641;51.676;5.808;2022-10-17T09:36:07;17.80;65.80
62583;DHT22;48641;51.676;5.808;2022-10-17T09:38:41;17.90;65.80
62583;DHT22;48641;51.676;5.808;2022-10-17T09:41:17;17.90;65.80
62583;DHT22;48641;51.676;5.808;2022-10-17T09:43:44;17.90;65.80
62583;DHT22;48641;51.676;5.808;2022-10-17T09:46:21;17.90;65.80
62583;DHT22;48641;51.676;5.808;2022-10-17T09:49:01;17.90;65.70
62583;DHT22;48641;51.676;5.808;2022-10-17T09:51:29;17.90;65.70
62583;DHT22;48641;51.676;5.808;2022-10-17T09:53:59;17.90;65.80
62583;DHT22;48641;51.676;5.808;2022-10-17T09:56:25;17.90;65.90
62583;DHT22;48641;51.676;5.808;2022-10-17T09:58:55;17.90;65.80
62583;DHT22;48641;51.676;5.808;2022-10-17T10:01:22;17.90;65.70
62583;DHT22;48641;51.676;5.808;2022-10-17T10:04:10;17.90;65.70
62583;DHT22;48641;51.676;5.808;2022-10-17T10:06:37;17.90;65.70
62583;DHT22;48641;51.676;5.808;2022-10-17T10:09:04;17.90;65.80
62583;DHT22;48641;51.676;5.808;2022-10-17T10:11:51;17.90;65.70
62583;DHT22;48641;51.676;5.808;2022-10-17T10:14:28;18.00;65.60
62583;DHT22;48641;51.676;5.808;2022-10-17T10:16:55;17.90;65.70
62583;DHT22;48641;51.676;5.808;2022-10-17T10:19:48;17.90;65.70
62583;DHT22;48641;51.676;5.808;2022-10-17T10:22:15;18.00;65.60
62583;DHT22;48641;51.676;5.808;2022-10-17T10:24:41;17.90;65.70
62583;DHT22;48641;51.676;5.808;2022-10-17T10:27:15;17.90;65.70
62583;DHT22;48641;51.676;5.808;2022-10-17T10:29:49;18.00;65.80
62583;DHT22;48641;51.676;5.808;2022-10-17T10:32:33;18.00;65.70
62583;DHT22;48641;51.676;5.808;2022-10-17T10:35:06;18.00;65.60
62583;DHT22;48641;51.676;5.808;2022-10-17T10:37:43;18.00;65.90
62583;DHT22;48641;51.676;5.808;2022-10-17T10:40:23;18.00;65.90
62583;DHT22;48641;51.676;5.808;2022-10-17T10:42:52;18.00;66.50
62583;DHT22;48641;51.676;5.808;2022-10-17T10:45:27;18.00;66.50
62583;DHT22;48641;51.676;5.808;2022-10-17T10:48:01;18.00;67.30
62583;DHT22;48641;51.676;5.808;2022-10-17T10:50:42;18.00;67.10
62583;DHT22;48641;51.676;5.808;2022-10-17T10:55:55;18.00;66.70
62583;DHT22;48641;51.676;5.808;2022-10-17T11:01:10;18.00;66.40
62583;DHT22;48641;51.676;5.808;2022-10-17T11:06:43;18.00;66.30
62583;DHT22;48641;51.676;5.808;2022-10-17T11:09:14;18.00;66.40
62583;DHT22;48641;51.676;5.808;2022-10-17T11:11:46;18.00;66.30
62583;DHT22;48641;51.676;5.808;2022-10-17T11:14:20;18.00;66.30
62583;DHT22;48641;51.676;5.808;2022-10-17T11:19:51;18.00;66.00
62583;DHT22;48641;51.676;5.808;2022-10-17T11:22:27;18.00;66.20
62583;DHT22;48641;51.676;5.808;2022-10-17T11:24:58;18.00;66.20
62583;DHT22;48641;51.676;5.808;2022-10-17T11:27:27;18.00;66.20
62583;DHT22;48641;51.676;5.808;2022-10-17T11:29:53;18.00;66.10
62583;DHT22;48641;51.676;5.808;2022-10-17T11:37:45;18.00;66.70
62583;DHT22;48641;51.676;5.808;2022-10-17T11:40:21;18.00;66.70
62583;DHT22;48641;51.676;5.808;2022-10-17T11:42:57;18.10;66.70
62583;DHT22;48641;51.676;5.808;2022-10-17T11:45:26;18.10;66.50
62583;DHT22;48641;51.676;5.808;2022-10-17T11:47:57;18.00;66.50
62583;DHT22;48641;51.676;5.808;2022-10-17T11:50:29;18.10;66.60
62583;DHT22;48641;51.676;5.808;2022-10-17T11:53:11;18.00;66.50
62583;DHT22;48641;51.676;5.808;2022-10-17T11:55:40;18.00;66.50
62583;DHT22;48641;51.676;5.808;2022-10-17T11:58:31;18.00;66.50
62583;DHT22;48641;51.676;5.808;2022-10-17T12:12:44;18.00;66.40
62583;DHT22;48641;51.676;5.808;2022-10-17T12:17:53;18.10;66.50
62583;DHT22;48641;51.676;5.808;2022-10-17T12:23:03;18.10;66.50
62583;DHT22;48641;51.676;5.808;2022-10-17T12:25:35;18.10;66.40
62583;DHT22;48641;51.676;5.808;2022-10-17T12:28:16;18.10;66.40
62583;DHT22;48641;51.676;5.808;2022-10-17T12:30:53;18.10;67.30
62583;DHT22;48641;51.676;5.808;2022-10-17T12:33:19;18.00;66.30
62583;DHT22;48641;51.676;5.808;2022-10-17T12:35:48;18.00;66.70
62583;DHT22;48641;51.676;5.808;2022-10-17T12:38:18;18.00;66.60
62583;DHT22;48641;51.676;5.808;2022-10-17T12:40:52;18.00;66.50
62583;DHT22;48641;51.676;5.808;2022-10-17T12:56:38;18.30;65.40
62583;DHT22;48641;51.676;5.808;2022-10-17T12:59:15;18.30;65.50
62583;DHT22;48641;51.676;5.808;2022-10-17T13:01:46;18.30;65.70
62583;DHT22;48641;51.676;5.808;2022-10-17T13:04:12;18.20;66.20
62583;DHT22;48641;51.676;5.808;2022-10-17T13:06:53;18.30;66.30
62583;DHT22;48641;51.676;5.808;2022-10-17T13:09:34;18.20;66.20
62583;DHT22;48641;51.676;5.808;2022-10-17T13:12:03;18.20;66.20
62583;DHT22;48641;51.676;5.808;2022-10-17T13:14:30;18.20;66.20
62583;DHT22;48641;51.676;5.808;2022-10-17T13:16:59;18.20;66.20
62583;DHT22;48641;51.676;5.808;2022-10-17T13:19:29;18.20;66.20
62583;DHT22;48641;51.676;5.808;2022-10-17T13:21:58;18.20;66.20
62583;DHT22;48641;51.676;5.808;2022-10-17T13:24:34;18.20;66.20
62583;DHT22;48641;51.676;5.808;2022-10-17T13:27:00;18.20;66.00
62583;DHT22;48641;51.676;5.808;2022-10-17T13:29:27;18.20;66.20
62583;DHT22;48641;51.676;5.808;2022-10-17T13:32:02;18.20;66.20
62583;DHT22;48641;51.676;5.808;2022-10-17T13:34:29;18.20;66.10
62583;DHT22;48641;51.676;5.808;2022-10-17T13:36:58;18.20;66.10
62583;DHT22;48641;51.676;5.808;2022-10-17T13:39:27;18.20;66.00
62583;DHT22;48641;51.676;5.808;2022-10-17T13:41:55;18.20;66.00
62583;DHT22;48641;51.676;5.808;2022-10-17T13:44:24;18.20;66.00
62583;DHT22;48641;51.676;5.808;2022-10-17T13:46:50;18.20;66.00
62583;DHT22;48641;51.676;5.808;2022-10-17T13:49:30;18.20;66.00
62583;DHT22;48641;51.676;5.808;2022-10-17T13:51:57;18.20;66.00
62583;DHT22;48641;51.676;5.808;2022-10-17T13:54:43;18.20;67.00
62583;DHT22;48641;51.676;5.808;2022-10-17T13:57:26;18.20;65.90
62583;DHT22;48641;51.676;5.808;2022-10-17T13:59:58;18.20;66.00
62583;DHT22;48641;51.676;5.808;2022-10-17T14:02:28;18.20;66.00
62583;DHT22;48641;51.676;5.808;2022-10-17T14:05:14;18.20;66.00
62583;DHT22;48641;51.676;5.808;2022-10-17T14:07:57;18.20;65.90
62583;DHT22;48641;51.676;5.808;2022-10-17T14:10:31;18.20;66.20
62583;DHT22;48641;51.676;5.808;2022-10-17T14:12:59;18.20;66.20
62583;DHT22;48641;51.676;5.808;2022-10-17T14:15:27;18.20;66.20
62583;DHT22;48641;51.676;5.808;2022-10-17T14:17:57;18.20;66.20
62583;DHT22;48641;51.676;5.808;2022-10-17T14:20:24;18.20;66.20
62583;DHT22;48641;51.676;5.808;2022-10-17T14:22:50;18.20;66.20
62583;DHT22;48641;51.676;5.808;2022-10-17T14:25:32;18.20;66.10
62583;DHT22;48641;51.676;5.808;2022-10-17T14:30:38;18.20;66.00
62583;DHT22;48641;51.676;5.808;2022-10-17T14:33:07;18.20;66.10
62583;DHT22;48641;51.676;5.808;2022-10-17T14:35:33;18.20;66.10
62583;DHT22;48641;51.676;5.808;2022-10-17T14:38:01;18.20;66.00
62583;DHT22;48641;51.676;5.808;2022-10-17T14:40:29;18.20;67.10
62583;DHT22;48641;51.676;5.808;2022-10-17T14:42:58;18.20;67.20
62583;DHT22;48641;51.676;5.808;2022-10-17T14:45:27;18.20;67.10
62583;DHT22;48641;51.676;5.808;2022-10-17T14:48:00;18.20;66.90
62583;DHT22;48641;51.676;5.808;2022-10-17T14:50:29;18.20;66.90
62583;DHT22;48641;51.676;5.808;2022-10-17T14:53:02;18.20;66.80
62583;DHT22;48641;51.676;5.808;2022-10-17T14:55:30;18.30;66.80
62583;DHT22;48641;51.676;5.808;2022-10-17T14:57:55;18.30;66.90
62583;DHT22;48641;51.676;5.808;2022-10-17T15:00:22;18.30;66.90
62583;DHT22;48641;51.676;5.808;2022-10-17T15:02:49;18.30;66.80
62583;DHT22;48641;51.676;5.808;2022-10-17T15:05:15;18.30;66.70
62583;DHT22;48641;51.676;5.808;2022-10-17T15:07:41;18.30;66.70
62583;DHT22;48641;51.676;5.808;2022-10-17T15:10:36;18.30;66.60
62583;DHT22;48641;51.676;5.808;2022-10-17T15:13:06;18.30;66.30
62583;DHT22;48641;51.676;5.808;2022-10-17T15:15:32;18.30;66.50
62583;DHT22;48641;51.676;5.808;2022-10-17T15:17:58;18.30;66.50
62583;DHT22;48641;51.676;5.808;2022-10-17T15:20:25;18.30;66.50
62583;DHT22;48641;51.676;5.808;2022-10-17T15:22:57;18.30;66.50
62583;DHT22;48641;51.676;5.808;2022-10-17T15:25:24;18.30;66.50
62583;DHT22;48641;51.676;5.808;2022-10-17T15:27:50;18.30;66.50
62583;DHT22;48641;51.676;5.808;2022-10-17T15:30:17;18.30;66.50
62583;DHT22;48641;51.676;5.808;2022-10-17T15:32:43;18.30;66.40
62583;DHT22;48641;51.676;5.808;2022-10-17T15:35:09;18.30;66.40
62583;DHT22;48641;51.676;5.808;2022-10-17T15:37:35;18.30;66.40
62583;DHT22;48641;51.676;5.808;2022-10-17T15:40:00;18.30;66.30
62583;DHT22;48641;51.676;5.808;2022-10-17T15:42:27;18.30;66.40
62583;DHT22;48641;51.676;5.808;2022-10-17T15:44:54;18.30;66.30
62583;DHT22;48641;51.676;5.808;2022-10-17T15:47:28;18.30;66.40
62583;DHT22;48641;51.676;5.808;2022-10-17T15:49:55;18.40;66.50
62583;DHT22;48641;51.676;5.808;2022-10-17T15:52:22;18.30;66.40
62583;DHT22;48641;51.676;5.808;2022-10-17T15:54:47;18.30;66.40
62583;DHT22;48641;51.676;5.808;2022-10-17T15:57:25;18.30;66.40
62583;DHT22;48641;51.676;5.808;2022-10-17T15:59:52;18.40;66.40
62583;DHT22;48641;51.676;5.808;2022-10-17T16:02:19;18.30;66.40
62583;DHT22;48641;51.676;5.808;2022-10-17T16:04:46;18.30;66.40
62583;DHT22;48641;51.676;5.808;2022-10-17T16:07:12;18.30;66.40
62583;DHT22;48641;51.676;5.808;2022-10-17T16:09:38;18.30;66.30
62583;DHT22;48641;51.676;5.808;2022-10-17T16:12:05;18.40;66.40
62583;DHT22;48641;51.676;5.808;2022-10-17T16:14:33;18.40;66.40
62583;DHT22;48641;51.676;5.808;2022-10-17T16:16:59;18.40;66.40
62583;DHT22;48641;51.676;5.808;2022-10-17T16:19:25;18.30;66.30
62583;DHT22;48641;51.676;5.808;2022-10-17T16:21:57;18.40;66.30
62583;DHT22;48641;51.676;5.808;2022-10-17T16:24:23;18.30;66.30
62583;DHT22;48641;51.676;5.808;2022-10-17T16:26:49;18.40;66.40
62583;DHT22;48641;51.676;5.808;2022-10-17T16:29:15;18.40;66.30
62583;DHT22;48641;51.676;5.808;2022-10-17T16:31:43;18.40;66.30
62583;DHT22;48641;51.676;5.808;2022-10-17T16:34:11;18.40;66.30
62583;DHT22;48641;51.676;5.808;2022-10-17T16:36:38;18.40;66.30
62583;DHT22;48641;51.676;5.808;2022-10-17T16:39:03;18.40;66.20
62583;DHT22;48641;51.676;5.808;2022-10-17T16:41:32;18.40;66.20
62583;DHT22;48641;51.676;5.808;2022-10-17T16:43:59;18.40;66.20
62583;DHT22;48641;51.676;5.808;2022-10-17T16:46:27;18.40;66.30
62583;DHT22;48641;51.676;5.808;2022-10-17T16:48:53;18.40;66.40
62583;DHT22;48641;51.676;5.808;2022-10-17T16:51:19;18.40;66.30
62583;DHT22;48641;51.676;5.808;2022-10-17T16:53:46;18.40;66.90
62583;DHT22;48641;51.676;5.808;2022-10-17T16:56:17;18.40;66.90
62583;DHT22;48641;51.676;5.808;2022-10-17T16:58:44;18.40;66.80
62583;DHT22;48641;51.676;5.808;2022-10-17T17:01:14;18.40;66.70
62583;DHT22;48641;51.676;5.808;2022-10-17T17:03:42;18.40;66.90
62583;DHT22;48641;51.676;5.808;2022-10-17T17:06:11;18.30;66.90
62583;DHT22;48641;51.676;5.808;2022-10-17T17:08:37;18.40;66.90
62583;DHT22;48641;51.676;5.808;2022-10-17T17:11:06;18.40;66.70
62583;DHT22;48641;51.676;5.808;2022-10-17T17:13:32;18.40;66.70